sensor_id;sensor_type;location;lat;lon;timestamp;P1;durP1;ratioP1;P2;durP2;ratioP2
30382;SDS011;17179;48.022;7.858;2022-07-23T00:00:43;6.00;;;4.47;;
30382;SDS011;17179;48.022;7.858;2022-07-23T00:03:09;5.22;;;4.78;;
30382;SDS011;17179;48.022;7.858;2022-07-23T00:05:34;5.00;;;4.57;;
30382;SDS011;17179;48.022;7.858;2022-07-23T00:08:00;5.78;;;4.80;;
30382;SDS011;17179;48.022;7.858;2022-07-23T00:10:26;5.15;;;4.65;;
30382;SDS011;17179;48.022;7.858;2022-07-23T00:12:51;5.60;;;5.20;;
30382;SDS011;17179;48.022;7.858;2022-07-23T00:15:16;5.47;;;4.30;;
30382;SDS011;17179;48.022;7.858;2022-07-23T00:17:42;6.05;;;4.55;;
30382;SDS011;17179;48.022;7.858;2022-07-23T00:20:07;5.60;;;4.95;;
30382;SDS011;17179;48.022;7.858;2022-07-23T00:22:33;5.45;;;4.95;;
30382;SDS011;17179;48.022;7.858;2022-07-23T00:24:59;6.13;;;4.55;;
30382;SDS011;17179;48.022;7.858;2022-07-23T00:27:24;5.70;;;4.47;;
30382;SDS011;17179;48.022;7.858;2022-07-23T00:29:50;4.75;;;4.45;;
30382;SDS011;17179;48.022;7.858;2022-07-23T00:32:15;5.10;;;4.63;;
30382;SDS011;17179;48.022;7.858;2022-07-23T00:34:41;4.43;;;4.10;;
30382;SDS011;17179;48.022;7.858;2022-07-23T00:37:06;4.85;;;4.53;;
30382;SDS011;17179;48.022;7.858;2022-07-23T00:39:32;5.63;;;4.43;;
30382;SDS011;17179;48.022;7.858;2022-07-23T00:41:57;4.03;;;3.78;;
30382;SDS011;17179;48.022;7.858;2022-07-23T00:44:23;10.55;;;5.50;;
30382;SDS011;17179;48.022;7.858;2022-07-23T00:46:54;5.47;;;4.53;;
30382;SDS011;17179;48.022;7.858;2022-07-23T00:49:27;4.75;;;4.45;;
30382;SDS011;17179;48.022;7.858;2022-07-23T00:51:54;4.45;;;4.05;;
30382;SDS011;17179;48.022;7.858;2022-07-23T00:54:21;4.72;;;4.28;;
30382;SDS011;17179;48.022;7.858;2022-07-23T00:56:48;4.68;;;4.28;;
30382;SDS011;17179;48.022;7.858;2022-07-23T00:59:13;7.35;;;5.00;;
30382;SDS011;17179;48.022;7.858;2022-07-23T01:01:39;9.15;;;4.53;;
30382;SDS011;17179;48.022;7.858;2022-07-23T01:04:05;5.07;;;4.68;;
30382;SDS011;17179;48.022;7.858;2022-07-23T01:06:35;5.50;;;5.00;;
30382;SDS011;17179;48.022;7.858;2022-07-23T01:09:03;7.13;;;4.78;;
30382;SDS011;17179;48.022;7.858;2022-07-23T01:11:31;4.97;;;4.57;;
30382;SDS011;17179;48.022;7.858;2022-07-23T01:13:58;4.90;;;4.50;;
30382;SDS011;17179;48.022;7.858;2022-07-23T01:16:23;5.47;;;5.10;;
30382;SDS011;17179;48.022;7.858;2022-07-23T01:18:49;5.10;;;4.70;;
30382;SDS011;17179;48.022;7.858;2022-07-23T01:21:14;5.28;;;4.78;;
30382;SDS011;17179;48.022;7.858;2022-07-23T01:23:43;8.15;;;5.68;;
30382;SDS011;17179;48.022;7.858;2022-07-23T01:26:08;6.18;;;5.57;;
30382;SDS011;17179;48.022;7.858;2022-07-23T01:28:34;8.32;;;5.85;;
30382;SDS011;17179;48.022;7.858;2022-07-23T01:30:59;9.00;;;5.82;;
30382;SDS011;17179;48.022;7.858;2022-07-23T01:33:24;6.82;;;6.25;;
30382;SDS011;17179;48.022;7.858;2022-07-23T01:35:50;7.13;;;6.43;;
30382;SDS011;17179;48.022;7.858;2022-07-23T01:38:15;7.15;;;6.45;;
30382;SDS011;17179;48.022;7.858;2022-07-23T01:40:40;8.63;;;5.93;;
30382;SDS011;17179;48.022;7.858;2022-07-23T01:43:06;14.50;;;7.45;;
30382;SDS011;17179;48.022;7.858;2022-07-23T01:45:31;11.77;;;8.25;;
30382;SDS011;17179;48.022;7.858;2022-07-23T01:47:56;7.00;;;6.28;;
30382;SDS011;17179;48.022;7.858;2022-07-23T01:50:22;7.50;;;6.70;;
30382;SDS011;17179;48.022;7.858;2022-07-23T01:52:47;9.38;;;6.53;;
30382;SDS011;17179;48.022;7.858;2022-07-23T01:55:12;10.63;;;6.18;;
30382;SDS011;17179;48.022;7.858;2022-07-23T01:57:38;9.88;;;6.28;;
30382;SDS011;17179;48.022;7.858;2022-07-23T02:00:03;8.57;;;5.95;;
30382;SDS011;17179;48.022;7.858;2022-07-23T02:02:29;8.00;;;5.97;;
30382;SDS011;17179;48.022;7.858;2022-07-23T02:04:54;6.88;;;6.18;;
30382;SDS011;17179;48.022;7.858;2022-07-23T02:07:20;5.80;;;5.30;;
30382;SDS011;17179;48.022;7.858;2022-07-23T02:09:45;6.72;;;5.75;;
30382;SDS011;17179;48.022;7.858;2022-07-23T02:12:10;6.30;;;5.75;;
30382;SDS011;17179;48.022;7.858;2022-07-23T02:14:36;6.53;;;5.88;;
30382;SDS011;17179;48.022;7.858;2022-07-23T02:17:01;8.00;;;5.85;;
30382;SDS011;17179;48.022;7.858;2022-07-23T02:19:27;6.55;;;5.88;;
30382;SDS011;17179;48.022;7.858;2022-07-23T02:21:52;6.93;;;6.32;;
30382;SDS011;17179;48.022;7.858;2022-07-23T02:24:19;7.68;;;6.43;;
30382;SDS011;17179;48.022;7.858;2022-07-23T02:26:44;10.23;;;6.97;;
30382;SDS011;17179;48.022;7.858;2022-07-23T02:29:10;7.18;;;6.53;;
30382;SDS011;17179;48.022;7.858;2022-07-23T02:31:35;6.60;;;5.85;;
30382;SDS011;17179;48.022;7.858;2022-07-23T02:34:01;7.80;;;7.03;;
30382;SDS011;17179;48.022;7.858;2022-07-23T02:36:26;6.20;;;5.80;;
30382;SDS011;17179;48.022;7.858;2022-07-23T02:38:52;7.03;;;6.00;;
30382;SDS011;17179;48.022;7.858;2022-07-23T02:41:17;6.30;;;5.78;;
30382;SDS011;17179;48.022;7.858;2022-07-23T02:43:43;6.80;;;6.10;;
30382;SDS011;17179;48.022;7.858;2022-07-23T02:46:08;8.55;;;6.75;;
30382;SDS011;17179;48.022;7.858;2022-07-23T02:48:33;7.22;;;6.63;;
30382;SDS011;17179;48.022;7.858;2022-07-23T02:50:59;6.95;;;6.25;;
30382;SDS011;17179;48.022;7.858;2022-07-23T02:53:25;7.25;;;6.25;;
30382;SDS011;17179;48.022;7.858;2022-07-23T02:55:50;6.05;;;5.65;;
30382;SDS011;17179;48.022;7.858;2022-07-23T02:58:16;8.63;;;6.32;;
30382;SDS011;17179;48.022;7.858;2022-07-23T03:00:42;7.05;;;6.35;;
30382;SDS011;17179;48.022;7.858;2022-07-23T03:03:07;8.30;;;7.50;;
30382;SDS011;17179;48.022;7.858;2022-07-23T03:05:33;8.00;;;7.20;;
30382;SDS011;17179;48.022;7.858;2022-07-23T03:07:59;7.63;;;6.88;;
30382;SDS011;17179;48.022;7.858;2022-07-23T03:10:24;8.48;;;6.85;;
30382;SDS011;17179;48.022;7.858;2022-07-23T03:12:50;7.65;;;7.05;;
30382;SDS011;17179;48.022;7.858;2022-07-23T03:15:15;10.63;;;7.05;;
30382;SDS011;17179;48.022;7.858;2022-07-23T03:17:41;8.10;;;7.40;;
30382;SDS011;17179;48.022;7.858;2022-07-23T03:20:06;7.80;;;7.13;;
30382;SDS011;17179;48.022;7.858;2022-07-23T03:22:32;7.65;;;6.80;;
30382;SDS011;17179;48.022;7.858;2022-07-23T03:24:57;8.18;;;6.55;;
30382;SDS011;17179;48.022;7.858;2022-07-23T03:27:23;7.30;;;6.65;;
30382;SDS011;17179;48.022;7.858;2022-07-23T03:29:51;7.75;;;7.15;;
30382;SDS011;17179;48.022;7.858;2022-07-23T03:32:17;7.82;;;7.13;;
30382;SDS011;17179;48.022;7.858;2022-07-23T03:34:42;8.02;;;7.32;;
30382;SDS011;17179;48.022;7.858;2022-07-23T03:37:08;7.07;;;6.53;;
30382;SDS011;17179;48.022;7.858;2022-07-23T03:39:33;8.23;;;7.63;;
30382;SDS011;17179;48.022;7.858;2022-07-23T03:41:59;7.97;;;7.22;;
30382;SDS011;17179;48.022;7.858;2022-07-23T03:44:24;8.15;;;6.63;;
30382;SDS011;17179;48.022;7.858;2022-07-23T03:46:49;8.02;;;7.30;;
30382;SDS011;17179;48.022;7.858;2022-07-23T03:49:15;8.02;;;6.60;;
30382;SDS011;17179;48.022;7.858;2022-07-23T03:51:40;7.35;;;6.85;;
30382;SDS011;17179;48.022;7.858;2022-07-23T03:54:06;7.38;;;6.80;;
30382;SDS011;17179;48.022;7.858;2022-07-23T03:56:31;7.13;;;6.43;;
30382;SDS011;17179;48.022;7.858;2022-07-23T03:58:57;7.97;;;7.30;;
30382;SDS011;17179;48.022;7.858;2022-07-23T04:01:22;8.23;;;7.30;;
30382;SDS011;17179;48.022;7.858;2022-07-23T04:03:47;6.93;;;6.32;;
30382;SDS011;17179;48.022;7.858;2022-07-23T04:06:13;8.00;;;7.35;;
30382;SDS011;17179;48.022;7.858;2022-07-23T04:08:38;7.45;;;6.85;;
30382;SDS011;17179;48.022;7.858;2022-07-23T04:11:04;7.40;;;6.78;;
30382;SDS011;17179;48.022;7.858;2022-07-23T04:13:29;8.30;;;7.70;;
30382;SDS011;17179;48.022;7.858;2022-07-23T04:15:54;7.30;;;6.70;;
30382;SDS011;17179;48.022;7.858;2022-07-23T04:18:20;7.25;;;6.63;;
30382;SDS011;17179;48.022;7.858;2022-07-23T04:20:48;7.97;;;7.40;;
30382;SDS011;17179;48.022;7.858;2022-07-23T04:23:14;7.50;;;6.97;;
30382;SDS011;17179;48.022;7.858;2022-07-23T04:25:39;8.00;;;7.20;;
30382;SDS011;17179;48.022;7.858;2022-07-23T04:28:04;7.35;;;6.75;;
30382;SDS011;17179;48.022;7.858;2022-07-23T04:30:30;8.15;;;7.35;;
30382;SDS011;17179;48.022;7.858;2022-07-23T04:32:55;7.68;;;7.07;;
30382;SDS011;17179;48.022;7.858;2022-07-23T04:35:20;8.82;;;7.35;;
30382;SDS011;17179;48.022;7.858;2022-07-23T04:37:46;8.55;;;7.80;;
30382;SDS011;17179;48.022;7.858;2022-07-23T04:40:12;7.45;;;6.78;;
30382;SDS011;17179;48.022;7.858;2022-07-23T04:42:38;6.97;;;6.47;;
30382;SDS011;17179;48.022;7.858;2022-07-23T04:45:03;7.30;;;6.80;;
30382;SDS011;17179;48.022;7.858;2022-07-23T04:47:29;7.90;;;7.20;;
30382;SDS011;17179;48.022;7.858;2022-07-23T04:49:55;7.03;;;6.53;;
30382;SDS011;17179;48.022;7.858;2022-07-23T04:52:21;7.75;;;7.03;;
30382;SDS011;17179;48.022;7.858;2022-07-23T04:54:46;8.40;;;7.57;;
30382;SDS011;17179;48.022;7.858;2022-07-23T04:57:12;7.50;;;6.82;;
30382;SDS011;17179;48.022;7.858;2022-07-23T04:59:37;8.35;;;7.63;;
30382;SDS011;17179;48.022;7.858;2022-07-23T05:02:02;7.57;;;7.00;;
30382;SDS011;17179;48.022;7.858;2022-07-23T05:04:28;6.72;;;6.00;;
30382;SDS011;17179;48.022;7.858;2022-07-23T05:06:53;7.40;;;6.40;;
30382;SDS011;17179;48.022;7.858;2022-07-23T05:09:19;7.80;;;6.63;;
30382;SDS011;17179;48.022;7.858;2022-07-23T05:11:44;6.65;;;5.95;;
30382;SDS011;17179;48.022;7.858;2022-07-23T05:14:09;11.50;;;7.20;;
30382;SDS011;17179;48.022;7.858;2022-07-23T05:16:37;9.80;;;7.60;;
30382;SDS011;17179;48.022;7.858;2022-07-23T05:19:02;8.20;;;7.40;;
30382;SDS011;17179;48.022;7.858;2022-07-23T05:21:28;7.97;;;6.78;;
30382;SDS011;17179;48.022;7.858;2022-07-23T05:23:53;7.35;;;6.78;;
30382;SDS011;17179;48.022;7.858;2022-07-23T05:26:19;7.95;;;7.15;;
30382;SDS011;17179;48.022;7.858;2022-07-23T05:28:44;8.50;;;7.70;;
30382;SDS011;17179;48.022;7.858;2022-07-23T05:31:09;10.95;;;7.28;;
30382;SDS011;17179;48.022;7.858;2022-07-23T05:33:35;8.77;;;7.90;;
30382;SDS011;17179;48.022;7.858;2022-07-23T05:36:03;8.13;;;7.53;;
30382;SDS011;17179;48.022;7.858;2022-07-23T05:38:29;7.15;;;6.53;;
30382;SDS011;17179;48.022;7.858;2022-07-23T05:40:56;8.02;;;7.13;;
30382;SDS011;17179;48.022;7.858;2022-07-23T05:43:21;8.35;;;7.68;;
30382;SDS011;17179;48.022;7.858;2022-07-23T05:45:47;8.23;;;7.47;;
30382;SDS011;17179;48.022;7.858;2022-07-23T05:48:12;8.15;;;7.35;;
30382;SDS011;17179;48.022;7.858;2022-07-23T05:50:37;9.77;;;7.15;;
30382;SDS011;17179;48.022;7.858;2022-07-23T05:53:03;8.63;;;7.93;;
30382;SDS011;17179;48.022;7.858;2022-07-23T05:55:28;8.60;;;7.80;;
30382;SDS011;17179;48.022;7.858;2022-07-23T05:57:56;7.78;;;7.20;;
30382;SDS011;17179;48.022;7.858;2022-07-23T06:00:22;8.20;;;7.47;;
30382;SDS011;17179;48.022;7.858;2022-07-23T06:02:47;11.43;;;8.27;;
30382;SDS011;17179;48.022;7.858;2022-07-23T06:05:12;9.30;;;8.40;;
30382;SDS011;17179;48.022;7.858;2022-07-23T06:07:38;8.95;;;8.05;;
30382;SDS011;17179;48.022;7.858;2022-07-23T06:10:03;8.25;;;7.45;;
30382;SDS011;17179;48.022;7.858;2022-07-23T06:12:29;8.50;;;7.70;;
30382;SDS011;17179;48.022;7.858;2022-07-23T06:14:54;11.85;;;10.07;;
30382;SDS011;17179;48.022;7.858;2022-07-23T06:17:20;8.88;;;8.02;;
30382;SDS011;17179;48.022;7.858;2022-07-23T06:19:45;9.75;;;8.35;;
30382;SDS011;17179;48.022;7.858;2022-07-23T06:22:11;10.77;;;8.25;;
30382;SDS011;17179;48.022;7.858;2022-07-23T06:24:36;8.95;;;8.23;;
30382;SDS011;17179;48.022;7.858;2022-07-23T06:27:02;9.13;;;7.72;;
30382;SDS011;17179;48.022;7.858;2022-07-23T06:29:27;7.97;;;7.28;;
30382;SDS011;17179;48.022;7.858;2022-07-23T06:31:52;7.55;;;6.85;;
30382;SDS011;17179;48.022;7.858;2022-07-23T06:34:18;7.63;;;7.00;;
30382;SDS011;17179;48.022;7.858;2022-07-23T06:36:43;8.07;;;7.22;;
30382;SDS011;17179;48.022;7.858;2022-07-23T06:39:08;7.80;;;7.10;;
30382;SDS011;17179;48.022;7.858;2022-07-23T06:41:34;8.07;;;7.38;;
30382;SDS011;17179;48.022;7.858;2022-07-23T06:43:59;8.15;;;7.43;;
30382;SDS011;17179;48.022;7.858;2022-07-23T06:46:24;8.05;;;7.28;;
30382;SDS011;17179;48.022;7.858;2022-07-23T06:48:50;14.88;;;7.40;;
30382;SDS011;17179;48.022;7.858;2022-07-23T06:51:15;8.48;;;7.68;;
30382;SDS011;17179;48.022;7.858;2022-07-23T06:53:41;8.98;;;7.40;;
30382;SDS011;17179;48.022;7.858;2022-07-23T06:56:06;7.85;;;6.93;;
30382;SDS011;17179;48.022;7.858;2022-07-23T06:58:32;7.95;;;7.25;;
30382;SDS011;17179;48.022;7.858;2022-07-23T07:00:57;8.13;;;6.97;;
30382;SDS011;17179;48.022;7.858;2022-07-23T07:03:22;7.10;;;6.50;;
30382;SDS011;17179;48.022;7.858;2022-07-23T07:05:48;7.95;;;6.57;;
30382;SDS011;17179;48.022;7.858;2022-07-23T07:08:14;8.00;;;7.40;;
30382;SDS011;17179;48.022;7.858;2022-07-23T07:10:40;7.78;;;7.07;;
30382;SDS011;17179;48.022;7.858;2022-07-23T07:13:05;11.07;;;7.63;;
30382;SDS011;17179;48.022;7.858;2022-07-23T07:15:31;7.55;;;6.85;;
30382;SDS011;17179;48.022;7.858;2022-07-23T07:17:56;7.82;;;7.13;;
30382;SDS011;17179;48.022;7.858;2022-07-23T07:20:21;7.68;;;6.97;;
30382;SDS011;17179;48.022;7.858;2022-07-23T07:22:48;7.20;;;6.50;;
30382;SDS011;17179;48.022;7.858;2022-07-23T07:25:13;7.45;;;6.75;;
30382;SDS011;17179;48.022;7.858;2022-07-23T07:27:38;7.13;;;6.63;;
30382;SDS011;17179;48.022;7.858;2022-07-23T07:30:04;7.50;;;6.85;;
30382;SDS011;17179;48.022;7.858;2022-07-23T07:32:30;7.38;;;6.78;;
30382;SDS011;17179;48.022;7.858;2022-07-23T07:34:57;6.55;;;6.05;;
30382;SDS011;17179;48.022;7.858;2022-07-23T07:37:22;7.95;;;7.15;;
30382;SDS011;17179;48.022;7.858;2022-07-23T07:39:48;9.65;;;7.65;;
30382;SDS011;17179;48.022;7.858;2022-07-23T07:42:13;7.78;;;7.15;;
30382;SDS011;17179;48.022;7.858;2022-07-23T07:44:39;8.18;;;7.40;;
30382;SDS011;17179;48.022;7.858;2022-07-23T07:47:04;8.10;;;7.30;;
30382;SDS011;17179;48.022;7.858;2022-07-23T07:49:30;6.97;;;6.38;;
30382;SDS011;17179;48.022;7.858;2022-07-23T07:51:55;7.32;;;6.70;;
30382;SDS011;17179;48.022;7.858;2022-07-23T07:54:20;7.40;;;6.70;;
30382;SDS011;17179;48.022;7.858;2022-07-23T07:56:46;9.07;;;8.23;;
30382;SDS011;17179;48.022;7.858;2022-07-23T07:59:11;7.85;;;7.07;;
30382;SDS011;17179;48.022;7.858;2022-07-23T08:01:36;11.98;;;7.47;;
30382;SDS011;17179;48.022;7.858;2022-07-23T08:04:02;9.40;;;8.27;;
30382;SDS011;17179;48.022;7.858;2022-07-23T08:06:27;8.07;;;7.38;;
30382;SDS011;17179;48.022;7.858;2022-07-23T08:08:53;7.18;;;6.47;;
30382;SDS011;17179;48.022;7.858;2022-07-23T08:11:18;9.95;;;6.60;;
30382;SDS011;17179;48.022;7.858;2022-07-23T08:13:43;7.88;;;7.18;;
30382;SDS011;17179;48.022;7.858;2022-07-23T08:16:11;7.15;;;6.55;;
30382;SDS011;17179;48.022;7.858;2022-07-23T08:18:37;10.02;;;7.25;;
30382;SDS011;17179;48.022;7.858;2022-07-23T08:21:02;8.25;;;6.68;;
30382;SDS011;17179;48.022;7.858;2022-07-23T08:23:29;6.68;;;5.95;;
30382;SDS011;17179;48.022;7.858;2022-07-23T08:25:54;6.70;;;6.22;;
30382;SDS011;17179;48.022;7.858;2022-07-23T08:28:21;8.52;;;6.93;;
30382;SDS011;17179;48.022;7.858;2022-07-23T08:30:47;6.93;;;6.30;;
30382;SDS011;17179;48.022;7.858;2022-07-23T08:33:14;7.57;;;6.70;;
30382;SDS011;17179;48.022;7.858;2022-07-23T08:35:42;9.90;;;6.00;;
30382;SDS011;17179;48.022;7.858;2022-07-23T08:38:12;7.93;;;7.13;;
30382;SDS011;17179;48.022;7.858;2022-07-23T08:40:41;7.93;;;7.13;;
30382;SDS011;17179;48.022;7.858;2022-07-23T08:43:10;7.60;;;6.93;;
30382;SDS011;17179;48.022;7.858;2022-07-23T08:45:38;7.40;;;6.68;;
30382;SDS011;17179;48.022;7.858;2022-07-23T08:48:08;10.27;;;6.20;;
30382;SDS011;17179;48.022;7.858;2022-07-23T08:53:02;6.07;;;5.57;;
30382;SDS011;17179;48.022;7.858;2022-07-23T08:55:31;8.63;;;5.75;;
30382;SDS011;17179;48.022;7.858;2022-07-23T08:57:56;7.90;;;6.10;;
30382;SDS011;17179;48.022;7.858;2022-07-23T09:00:22;6.70;;;6.13;;
30382;SDS011;17179;48.022;7.858;2022-07-23T09:02:48;6.07;;;5.68;;
30382;SDS011;17179;48.022;7.858;2022-07-23T09:05:15;7.20;;;6.50;;
30382;SDS011;17179;48.022;7.858;2022-07-23T09:15:54;7.15;;;6.45;;
30382;SDS011;17179;48.022;7.858;2022-07-23T09:18:30;7.20;;;6.43;;
30382;SDS011;17179;48.022;7.858;2022-07-23T09:21:22;7.28;;;6.60;;
30382;SDS011;17179;48.022;7.858;2022-07-23T09:26:16;6.00;;;5.45;;
30382;SDS011;17179;48.022;7.858;2022-07-23T09:28:57;6.05;;;5.60;;
30382;SDS011;17179;48.022;7.858;2022-07-23T09:31:23;6.63;;;5.57;;
30382;SDS011;17179;48.022;7.858;2022-07-23T09:33:49;7.40;;;6.70;;
30382;SDS011;17179;48.022;7.858;2022-07-23T09:36:15;6.70;;;6.10;;
30382;SDS011;17179;48.022;7.858;2022-07-23T09:38:51;8.27;;;6.40;;
30382;SDS011;17179;48.022;7.858;2022-07-23T09:41:17;6.53;;;5.57;;
30382;SDS011;17179;48.022;7.858;2022-07-23T09:43:43;6.05;;;5.55;;
30382;SDS011;17179;48.022;7.858;2022-07-23T09:46:19;6.00;;;5.50;;
30382;SDS011;17179;48.022;7.858;2022-07-23T09:48:46;5.93;;;5.43;;
30382;SDS011;17179;48.022;7.858;2022-07-23T09:51:12;6.75;;;6.25;;
30382;SDS011;17179;48.022;7.858;2022-07-23T09:53:41;6.32;;;5.72;;
30382;SDS011;17179;48.022;7.858;2022-07-23T09:56:06;7.40;;;5.53;;
30382;SDS011;17179;48.022;7.858;2022-07-23T09:58:32;5.63;;;5.13;;
30382;SDS011;17179;48.022;7.858;2022-07-23T10:01:08;6.20;;;5.00;;
30382;SDS011;17179;48.022;7.858;2022-07-23T10:03:34;5.40;;;5.03;;
30382;SDS011;17179;48.022;7.858;2022-07-23T10:06:00;5.68;;;5.28;;
30382;SDS011;17179;48.022;7.858;2022-07-23T10:08:25;11.63;;;8.05;;
30382;SDS011;17179;48.022;7.858;2022-07-23T10:10:51;7.45;;;6.47;;
30382;SDS011;17179;48.022;7.858;2022-07-23T10:13:18;9.23;;;5.70;;
30382;SDS011;17179;48.022;7.858;2022-07-23T10:16:13;7.35;;;6.57;;
30382;SDS011;17179;48.022;7.858;2022-07-23T10:18:38;6.47;;;5.97;;
30382;SDS011;17179;48.022;7.858;2022-07-23T10:21:05;5.05;;;4.65;;
30382;SDS011;17179;48.022;7.858;2022-07-23T10:23:37;5.28;;;4.88;;
30382;SDS011;17179;48.022;7.858;2022-07-23T10:26:24;5.28;;;4.90;;
30382;SDS011;17179;48.022;7.858;2022-07-23T10:29:02;7.75;;;4.93;;
30382;SDS011;17179;48.022;7.858;2022-07-23T10:31:41;5.55;;;5.13;;
30382;SDS011;17179;48.022;7.858;2022-07-23T10:37:01;4.78;;;4.43;;
30382;SDS011;17179;48.022;7.858;2022-07-23T10:42:35;10.15;;;7.63;;
30382;SDS011;17179;48.022;7.858;2022-07-23T10:45:01;8.35;;;6.45;;
30382;SDS011;17179;48.022;7.858;2022-07-23T10:47:47;5.75;;;5.30;;
30382;SDS011;17179;48.022;7.858;2022-07-23T10:50:17;5.90;;;5.35;;
30382;SDS011;17179;48.022;7.858;2022-07-23T10:53:07;5.70;;;5.35;;
30382;SDS011;17179;48.022;7.858;2022-07-23T10:55:44;5.57;;;5.18;;
30382;SDS011;17179;48.022;7.858;2022-07-23T10:58:21;5.78;;;5.38;;
30382;SDS011;17179;48.022;7.858;2022-07-23T11:00:48;6.50;;;5.85;;
30382;SDS011;17179;48.022;7.858;2022-07-23T11:05:57;5.53;;;5.15;;
30382;SDS011;17179;48.022;7.858;2022-07-23T11:08:22;5.40;;;4.90;;
30382;SDS011;17179;48.022;7.858;2022-07-23T11:10:55;6.75;;;6.15;;
30382;SDS011;17179;48.022;7.858;2022-07-23T11:13:37;5.80;;;5.28;;
30382;SDS011;17179;48.022;7.858;2022-07-23T11:16:04;5.82;;;5.32;;
30382;SDS011;17179;48.022;7.858;2022-07-23T11:22:07;5.65;;;5.25;;
30382;SDS011;17179;48.022;7.858;2022-07-23T11:31:51;5.85;;;5.45;;
30382;SDS011;17179;48.022;7.858;2022-07-23T11:34:46;5.68;;;5.28;;
30382;SDS011;17179;48.022;7.858;2022-07-23T11:39:57;5.75;;;5.45;;
30382;SDS011;17179;48.022;7.858;2022-07-23T11:42:23;5.70;;;5.28;;
30382;SDS011;17179;48.022;7.858;2022-07-23T11:44:49;6.82;;;6.22;;
30382;SDS011;17179;48.022;7.858;2022-07-23T11:47:15;8.10;;;6.55;;
30382;SDS011;17179;48.022;7.858;2022-07-23T11:49:56;6.43;;;5.88;;
30382;SDS011;17179;48.022;7.858;2022-07-23T11:52:23;5.30;;;4.97;;
30382;SDS011;17179;48.022;7.858;2022-07-23T11:54:51;5.68;;;5.38;;
30382;SDS011;17179;48.022;7.858;2022-07-23T11:57:25;6.38;;;5.88;;
30382;SDS011;17179;48.022;7.858;2022-07-23T11:59:56;6.00;;;5.57;;
30382;SDS011;17179;48.022;7.858;2022-07-23T12:02:23;6.50;;;5.75;;
30382;SDS011;17179;48.022;7.858;2022-07-23T12:04:50;10.57;;;5.97;;
30382;SDS011;17179;48.022;7.858;2022-07-23T12:07:36;6.47;;;5.97;;
30382;SDS011;17179;48.022;7.858;2022-07-23T12:10:20;6.43;;;5.93;;
30382;SDS011;17179;48.022;7.858;2022-07-23T12:15:24;6.13;;;5.70;;
30382;SDS011;17179;48.022;7.858;2022-07-23T12:17:56;6.13;;;5.63;;
30382;SDS011;17179;48.022;7.858;2022-07-23T12:23:23;8.57;;;6.43;;
30382;SDS011;17179;48.022;7.858;2022-07-23T12:25:51;7.10;;;6.40;;
30382;SDS011;17179;48.022;7.858;2022-07-23T12:28:36;6.88;;;6.30;;
30382;SDS011;17179;48.022;7.858;2022-07-23T12:31:02;5.85;;;5.32;;
30382;SDS011;17179;48.022;7.858;2022-07-23T12:33:32;7.00;;;5.53;;
30382;SDS011;17179;48.022;7.858;2022-07-23T12:36:04;7.18;;;6.35;;
30382;SDS011;17179;48.022;7.858;2022-07-23T12:38:38;5.63;;;5.22;;
30382;SDS011;17179;48.022;7.858;2022-07-23T12:41:10;7.30;;;5.35;;
30382;SDS011;17179;48.022;7.858;2022-07-23T12:43:37;9.10;;;5.57;;
30382;SDS011;17179;48.022;7.858;2022-07-23T12:46:07;5.93;;;5.53;;
30382;SDS011;17179;48.022;7.858;2022-07-23T12:56:08;6.38;;;5.78;;
30382;SDS011;17179;48.022;7.858;2022-07-23T12:58:45;6.38;;;5.97;;
30382;SDS011;17179;48.022;7.858;2022-07-23T13:01:21;6.40;;;6.00;;
30382;SDS011;17179;48.022;7.858;2022-07-23T13:06:37;5.50;;;5.10;;
30382;SDS011;17179;48.022;7.858;2022-07-23T13:09:04;8.57;;;5.38;;
30382;SDS011;17179;48.022;7.858;2022-07-23T13:11:32;6.22;;;5.82;;
30382;SDS011;17179;48.022;7.858;2022-07-23T13:13:58;5.25;;;4.95;;
30382;SDS011;17179;48.022;7.858;2022-07-23T13:16:25;8.55;;;4.90;;
30382;SDS011;17179;48.022;7.858;2022-07-23T13:18:51;5.50;;;5.00;;
30382;SDS011;17179;48.022;7.858;2022-07-23T13:21:16;5.93;;;5.43;;
30382;SDS011;17179;48.022;7.858;2022-07-23T13:23:42;5.18;;;4.78;;
30382;SDS011;17179;48.022;7.858;2022-07-23T13:26:07;6.05;;;5.50;;
30382;SDS011;17179;48.022;7.858;2022-07-23T13:28:33;4.93;;;4.60;;
30382;SDS011;17179;48.022;7.858;2022-07-23T13:30:58;5.80;;;5.30;;
30382;SDS011;17179;48.022;7.858;2022-07-23T13:33:24;5.18;;;4.78;;
30382;SDS011;17179;48.022;7.858;2022-07-23T13:35:50;4.97;;;4.50;;
30382;SDS011;17179;48.022;7.858;2022-07-23T13:38:17;4.95;;;4.65;;
30382;SDS011;17179;48.022;7.858;2022-07-23T13:40:44;5.43;;;4.93;;
30382;SDS011;17179;48.022;7.858;2022-07-23T13:43:12;5.93;;;4.82;;
30382;SDS011;17179;48.022;7.858;2022-07-23T13:45:39;4.53;;;4.22;;
30382;SDS011;17179;48.022;7.858;2022-07-23T13:48:06;5.05;;;4.75;;
30382;SDS011;17179;48.022;7.858;2022-07-23T13:50:32;6.22;;;4.88;;
30382;SDS011;17179;48.022;7.858;2022-07-23T13:53:00;5.03;;;4.63;;
30382;SDS011;17179;48.022;7.858;2022-07-23T13:55:26;5.32;;;5.00;;
30382;SDS011;17179;48.022;7.858;2022-07-23T13:57:52;4.72;;;4.28;;
30382;SDS011;17179;48.022;7.858;2022-07-23T14:00:17;5.13;;;4.22;;
30382;SDS011;17179;48.022;7.858;2022-07-23T14:02:42;5.55;;;5.05;;
30382;SDS011;17179;48.022;7.858;2022-07-23T14:05:09;6.63;;;5.05;;
30382;SDS011;17179;48.022;7.858;2022-07-23T14:07:36;5.45;;;5.05;;
30382;SDS011;17179;48.022;7.858;2022-07-23T14:10:03;5.10;;;4.70;;
30382;SDS011;17179;48.022;7.858;2022-07-23T14:12:29;9.38;;;5.43;;
30382;SDS011;17179;48.022;7.858;2022-07-23T14:14:55;5.88;;;5.38;;
30382;SDS011;17179;48.022;7.858;2022-07-23T14:17:20;17.40;;;15.65;;
30382;SDS011;17179;48.022;7.858;2022-07-23T14:19:46;33.42;;;23.45;;
30382;SDS011;17179;48.022;7.858;2022-07-23T14:22:11;10.65;;;9.65;;
30382;SDS011;17179;48.022;7.858;2022-07-23T14:24:37;7.30;;;6.70;;
30382;SDS011;17179;48.022;7.858;2022-07-23T14:27:03;6.68;;;6.07;;
30382;SDS011;17179;48.022;7.858;2022-07-23T14:29:29;8.07;;;5.10;;
30382;SDS011;17179;48.022;7.858;2022-07-23T14:31:54;5.90;;;5.53;;
30382;SDS011;17179;48.022;7.858;2022-07-23T14:34:20;6.53;;;6.03;;
30382;SDS011;17179;48.022;7.858;2022-07-23T14:36:45;6.28;;;5.80;;
30382;SDS011;17179;48.022;7.858;2022-07-23T14:39:11;6.47;;;5.97;;
30382;SDS011;17179;48.022;7.858;2022-07-23T14:41:37;7.22;;;6.43;;
30382;SDS011;17179;48.022;7.858;2022-07-23T14:44:03;7.28;;;6.38;;
30382;SDS011;17179;48.022;7.858;2022-07-23T14:46:28;6.22;;;5.63;;
30382;SDS011;17179;48.022;7.858;2022-07-23T14:48:54;7.60;;;6.90;;
30382;SDS011;17179;48.022;7.858;2022-07-23T14:51:19;6.63;;;6.03;;
30382;SDS011;17179;48.022;7.858;2022-07-23T14:53:45;6.18;;;5.60;;
30382;SDS011;17179;48.022;7.858;2022-07-23T14:56:10;6.37;;;5.50;;
30382;SDS011;17179;48.022;7.858;2022-07-23T14:58:35;5.07;;;4.78;;
30382;SDS011;17179;48.022;7.858;2022-07-23T15:01:01;5.05;;;4.60;;
30382;SDS011;17179;48.022;7.858;2022-07-23T15:03:26;5.10;;;4.72;;
30382;SDS011;17179;48.022;7.858;2022-07-23T15:05:51;5.95;;;5.40;;
30382;SDS011;17179;48.022;7.858;2022-07-23T15:08:17;5.77;;;5.20;;
30382;SDS011;17179;48.022;7.858;2022-07-23T15:10:42;8.63;;;5.07;;
30382;SDS011;17179;48.022;7.858;2022-07-23T15:13:08;5.35;;;4.95;;
30382;SDS011;17179;48.022;7.858;2022-07-23T15:15:33;5.95;;;5.55;;
30382;SDS011;17179;48.022;7.858;2022-07-23T15:17:58;6.23;;;5.63;;
30382;SDS011;17179;48.022;7.858;2022-07-23T15:20:24;5.90;;;5.32;;
30382;SDS011;17179;48.022;7.858;2022-07-23T15:22:49;6.43;;;5.82;;
30382;SDS011;17179;48.022;7.858;2022-07-23T15:25:14;5.68;;;5.20;;
30382;SDS011;17179;48.022;7.858;2022-07-23T15:27:40;5.25;;;4.95;;
30382;SDS011;17179;48.022;7.858;2022-07-23T15:30:06;5.60;;;5.10;;
30382;SDS011;17179;48.022;7.858;2022-07-23T15:32:31;6.05;;;5.60;;
30382;SDS011;17179;48.022;7.858;2022-07-23T15:34:57;5.60;;;5.18;;
30382;SDS011;17179;48.022;7.858;2022-07-23T15:37:22;5.68;;;5.28;;